sensor_id;sensor_type;location;lat;lon;timestamp;P1;durP1;ratioP1;P2;durP2;ratioP2
65182;SDS011;51771;51.068;-1.780;2023-05-07T00:00:31;9.45;;;2.78;;
65182;SDS011;51771;51.068;-1.780;2023-05-07T00:02:58;4.07;;;1.65;;
65182;SDS011;51771;51.068;-1.780;2023-05-07T00:05:24;7.18;;;2.67;;
65182;SDS011;51771;51.068;-1.780;2023-05-07T00:07:49;6.05;;;2.00;;
65182;SDS011;51771;51.068;-1.780;2023-05-07T00:10:15;4.63;;;2.10;;
65182;SDS011;51771;51.068;-1.780;2023-05-07T00:12:40;5.43;;;2.00;;
65182;SDS011;51771;51.068;-1.780;2023-05-07T00:15:06;5.15;;;1.50;;
65182;SDS011;51771;51.068;-1.780;2023-05-07T00:17:32;5.65;;;1.83;;
65182;SDS011;51771;51.068;-1.780;2023-05-07T00:19:57;4.55;;;2.00;;
65182;SDS011;51771;51.068;-1.780;2023-05-07T00:22:22;8.85;;;1.67;;
65182;SDS011;51771;51.068;-1.780;2023-05-07T00:24:48;6.13;;;1.80;;
65182;SDS011;51771;51.068;-1.780;2023-05-07T00:27:13;4.93;;;1.77;;
65182;SDS011;51771;51.068;-1.780;2023-05-07T00:29:38;3.80;;;1.20;;
65182;SDS011;51771;51.068;-1.780;2023-05-07T00:32:04;4.30;;;1.60;;
65182;SDS011;51771;51.068;-1.780;2023-05-07T00:34:29;3.92;;;1.70;;
65182;SDS011;51771;51.068;-1.780;2023-05-07T00:36:54;5.05;;;1.58;;
65182;SDS011;51771;51.068;-1.780;2023-05-07T00:39:20;4.07;;;1.73;;
65182;SDS011;51771;51.068;-1.780;2023-05-07T00:41:45;4.05;;;1.48;;
65182;SDS011;51771;51.068;-1.780;2023-05-07T00:44:11;3.13;;;1.30;;
65182;SDS011;51771;51.068;-1.780;2023-05-07T00:46:36;4.25;;;1.70;;
65182;SDS011;51771;51.068;-1.780;2023-05-07T00:49:01;5.05;;;1.90;;
65182;SDS011;51771;51.068;-1.780;2023-05-07T00:51:27;5.30;;;1.73;;
65182;SDS011;51771;51.068;-1.780;2023-05-07T00:53:52;5.57;;;1.95;;
65182;SDS011;51771;51.068;-1.780;2023-05-07T00:56:18;3.33;;;1.52;;
65182;SDS011;51771;51.068;-1.780;2023-05-07T00:58:43;3.40;;;1.38;;
65182;SDS011;51771;51.068;-1.780;2023-05-07T01:01:08;4.80;;;1.88;;
65182;SDS011;51771;51.068;-1.780;2023-05-07T01:03:34;4.35;;;1.60;;
65182;SDS011;51771;51.068;-1.780;2023-05-07T01:05:59;2.50;;;1.00;;
65182;SDS011;51771;51.068;-1.780;2023-05-07T01:08:24;4.10;;;1.77;;
65182;SDS011;51771;51.068;-1.780;2023-05-07T01:10:51;5.43;;;1.85;;
65182;SDS011;51771;51.068;-1.780;2023-05-07T01:13:17;4.55;;;2.15;;
65182;SDS011;51771;51.068;-1.780;2023-05-07T01:15:43;4.00;;;1.55;;
65182;SDS011;51771;51.068;-1.780;2023-05-07T01:18:08;2.85;;;1.25;;
65182;SDS011;51771;51.068;-1.780;2023-05-07T01:20:35;3.53;;;1.42;;
65182;SDS011;51771;51.068;-1.780;2023-05-07T01:23:00;3.33;;;1.45;;
65182;SDS011;51771;51.068;-1.780;2023-05-07T01:25:25;5.25;;;1.83;;
65182;SDS011;51771;51.068;-1.780;2023-05-07T01:27:51;3.75;;;1.45;;
65182;SDS011;51771;51.068;-1.780;2023-05-07T01:30:16;3.17;;;1.42;;
65182;SDS011;51771;51.068;-1.780;2023-05-07T01:32:45;4.38;;;1.73;;
65182;SDS011;51771;51.068;-1.780;2023-05-07T01:35:14;4.97;;;1.80;;
65182;SDS011;51771;51.068;-1.780;2023-05-07T01:37:40;4.07;;;1.80;;
65182;SDS011;51771;51.068;-1.780;2023-05-07T01:40:06;3.67;;;1.67;;
65182;SDS011;51771;51.068;-1.780;2023-05-07T01:42:32;4.55;;;1.45;;
65182;SDS011;51771;51.068;-1.780;2023-05-07T01:44:57;4.13;;;1.67;;
65182;SDS011;51771;51.068;-1.780;2023-05-07T01:47:23;4.70;;;3.42;;
65182;SDS011;51771;51.068;-1.780;2023-05-07T01:49:48;3.15;;;1.45;;
65182;SDS011;51771;51.068;-1.780;2023-05-07T01:52:14;3.97;;;1.38;;
65182;SDS011;51771;51.068;-1.780;2023-05-07T01:54:39;3.42;;;1.55;;
65182;SDS011;51771;51.068;-1.780;2023-05-07T01:57:05;3.78;;;1.85;;
65182;SDS011;51771;51.068;-1.780;2023-05-07T01:59:30;4.40;;;2.17;;
65182;SDS011;51771;51.068;-1.780;2023-05-07T02:01:55;4.43;;;1.80;;
65182;SDS011;51771;51.068;-1.780;2023-05-07T02:04:20;3.23;;;1.37;;
65182;SDS011;51771;51.068;-1.780;2023-05-07T02:06:46;3.83;;;1.33;;
65182;SDS011;51771;51.068;-1.780;2023-05-07T02:09:11;3.60;;;1.23;;
65182;SDS011;51771;51.068;-1.780;2023-05-07T02:11:36;3.88;;;1.73;;
65182;SDS011;51771;51.068;-1.780;2023-05-07T02:14:02;4.35;;;1.45;;
65182;SDS011;51771;51.068;-1.780;2023-05-07T02:16:27;4.97;;;1.60;;
65182;SDS011;51771;51.068;-1.780;2023-05-07T02:18:52;3.72;;;1.05;;
65182;SDS011;51771;51.068;-1.780;2023-05-07T02:21:17;4.00;;;1.60;;
65182;SDS011;51771;51.068;-1.780;2023-05-07T02:23:43;4.57;;;1.55;;
65182;SDS011;51771;51.068;-1.780;2023-05-07T02:26:08;5.43;;;2.47;;
65182;SDS011;51771;51.068;-1.780;2023-05-07T02:28:33;5.80;;;1.77;;
65182;SDS011;51771;51.068;-1.780;2023-05-07T02:31:04;8.75;;;2.20;;
65182;SDS011;51771;51.068;-1.780;2023-05-07T02:33:30;5.30;;;1.77;;
65182;SDS011;51771;51.068;-1.780;2023-05-07T02:35:55;4.93;;;2.28;;
65182;SDS011;51771;51.068;-1.780;2023-05-07T02:38:21;4.65;;;1.83;;
65182;SDS011;51771;51.068;-1.780;2023-05-07T02:40:46;4.00;;;1.38;;
65182;SDS011;51771;51.068;-1.780;2023-05-07T02:43:12;4.20;;;1.75;;
65182;SDS011;51771;51.068;-1.780;2023-05-07T02:45:37;4.60;;;1.60;;
65182;SDS011;51771;51.068;-1.780;2023-05-07T02:48:02;6.47;;;1.92;;
65182;SDS011;51771;51.068;-1.780;2023-05-07T02:50:28;4.60;;;1.52;;
65182;SDS011;51771;51.068;-1.780;2023-05-07T02:52:53;7.10;;;1.60;;
65182;SDS011;51771;51.068;-1.780;2023-05-07T02:55:18;5.03;;;2.05;;
65182;SDS011;51771;51.068;-1.780;2023-05-07T02:57:44;5.45;;;2.03;;
65182;SDS011;51771;51.068;-1.780;2023-05-07T03:00:12;5.18;;;2.20;;
65182;SDS011;51771;51.068;-1.780;2023-05-07T03:02:38;4.25;;;2.00;;
65182;SDS011;51771;51.068;-1.780;2023-05-07T03:05:03;5.97;;;2.33;;
65182;SDS011;51771;51.068;-1.780;2023-05-07T03:07:28;4.45;;;2.05;;
65182;SDS011;51771;51.068;-1.780;2023-05-07T03:09:54;5.17;;;1.73;;
65182;SDS011;51771;51.068;-1.780;2023-05-07T03:12:19;6.90;;;1.88;;
65182;SDS011;51771;51.068;-1.780;2023-05-07T03:14:45;7.68;;;2.75;;
65182;SDS011;51771;51.068;-1.780;2023-05-07T03:17:10;5.90;;;2.03;;
65182;SDS011;51771;51.068;-1.780;2023-05-07T03:19:35;6.93;;;2.60;;
65182;SDS011;51771;51.068;-1.780;2023-05-07T03:22:01;5.10;;;2.65;;
65182;SDS011;51771;51.068;-1.780;2023-05-07T03:24:26;6.07;;;2.33;;
65182;SDS011;51771;51.068;-1.780;2023-05-07T03:26:51;4.93;;;1.95;;
65182;SDS011;51771;51.068;-1.780;2023-05-07T03:29:16;5.07;;;2.20;;
65182;SDS011;51771;51.068;-1.780;2023-05-07T03:31:42;5.13;;;2.25;;
65182;SDS011;51771;51.068;-1.780;2023-05-07T03:34:07;6.40;;;2.50;;
65182;SDS011;51771;51.068;-1.780;2023-05-07T03:36:32;4.32;;;2.05;;
65182;SDS011;51771;51.068;-1.780;2023-05-07T03:38:57;8.18;;;3.13;;
65182;SDS011;51771;51.068;-1.780;2023-05-07T03:41:23;7.97;;;2.70;;
65182;SDS011;51771;51.068;-1.780;2023-05-07T03:43:48;8.40;;;3.17;;
65182;SDS011;51771;51.068;-1.780;2023-05-07T03:46:13;5.30;;;3.53;;
65182;SDS011;51771;51.068;-1.780;2023-05-07T03:48:38;7.97;;;3.10;;
65182;SDS011;51771;51.068;-1.780;2023-05-07T03:51:03;7.00;;;3.07;;
65182;SDS011;51771;51.068;-1.780;2023-05-07T03:53:29;7.53;;;3.25;;
65182;SDS011;51771;51.068;-1.780;2023-05-07T03:55:54;12.00;;;2.83;;
65182;SDS011;51771;51.068;-1.780;2023-05-07T03:58:19;8.53;;;3.27;;
65182;SDS011;51771;51.068;-1.780;2023-05-07T04:00:45;7.80;;;3.37;;
65182;SDS011;51771;51.068;-1.780;2023-05-07T04:03:10;8.68;;;3.40;;
65182;SDS011;51771;51.068;-1.780;2023-05-07T04:05:35;7.10;;;3.20;;
65182;SDS011;51771;51.068;-1.780;2023-05-07T04:08:00;8.85;;;3.63;;
65182;SDS011;51771;51.068;-1.780;2023-05-07T04:10:26;7.72;;;4.20;;
65182;SDS011;51771;51.068;-1.780;2023-05-07T04:12:53;9.90;;;3.13;;
65182;SDS011;51771;51.068;-1.780;2023-05-07T04:15:18;8.10;;;3.55;;
65182;SDS011;51771;51.068;-1.780;2023-05-07T04:17:43;8.95;;;3.17;;
65182;SDS011;51771;51.068;-1.780;2023-05-07T04:20:09;6.03;;;3.10;;
65182;SDS011;51771;51.068;-1.780;2023-05-07T04:22:35;7.35;;;2.75;;
65182;SDS011;51771;51.068;-1.780;2023-05-07T04:25:00;8.93;;;3.10;;
65182;SDS011;51771;51.068;-1.780;2023-05-07T04:27:26;7.82;;;3.03;;
65182;SDS011;51771;51.068;-1.780;2023-05-07T04:29:54;8.40;;;3.45;;
65182;SDS011;51771;51.068;-1.780;2023-05-07T04:32:20;8.45;;;2.90;;
65182;SDS011;51771;51.068;-1.780;2023-05-07T04:34:46;7.85;;;3.13;;
65182;SDS011;51771;51.068;-1.780;2023-05-07T04:37:11;8.88;;;4.22;;
65182;SDS011;51771;51.068;-1.780;2023-05-07T04:39:37;9.32;;;3.70;;
65182;SDS011;51771;51.068;-1.780;2023-05-07T04:42:02;9.85;;;3.55;;
65182;SDS011;51771;51.068;-1.780;2023-05-07T04:44:28;9.57;;;3.45;;
65182;SDS011;51771;51.068;-1.780;2023-05-07T04:46:55;7.95;;;4.00;;
65182;SDS011;51771;51.068;-1.780;2023-05-07T04:49:21;9.85;;;4.07;;
65182;SDS011;51771;51.068;-1.780;2023-05-07T04:51:46;12.27;;;4.60;;
65182;SDS011;51771;51.068;-1.780;2023-05-07T04:54:11;13.40;;;4.20;;
65182;SDS011;51771;51.068;-1.780;2023-05-07T04:56:36;10.75;;;4.00;;
65182;SDS011;51771;51.068;-1.780;2023-05-07T04:59:02;10.67;;;3.57;;
65182;SDS011;51771;51.068;-1.780;2023-05-07T05:01:27;9.87;;;3.97;;
65182;SDS011;51771;51.068;-1.780;2023-05-07T05:03:52;12.25;;;4.75;;
65182;SDS011;51771;51.068;-1.780;2023-05-07T05:06:17;11.35;;;4.95;;
65182;SDS011;51771;51.068;-1.780;2023-05-07T05:08:43;13.98;;;5.07;;
65182;SDS011;51771;51.068;-1.780;2023-05-07T05:11:08;8.83;;;3.67;;
65182;SDS011;51771;51.068;-1.780;2023-05-07T05:13:33;13.80;;;5.13;;
65182;SDS011;51771;51.068;-1.780;2023-05-07T05:15:58;12.33;;;5.27;;
65182;SDS011;51771;51.068;-1.780;2023-05-07T05:18:24;10.47;;;4.40;;
65182;SDS011;51771;51.068;-1.780;2023-05-07T05:20:49;11.73;;;5.13;;
65182;SDS011;51771;51.068;-1.780;2023-05-07T05:23:14;12.60;;;4.40;;
65182;SDS011;51771;51.068;-1.780;2023-05-07T05:25:39;11.10;;;5.07;;
65182;SDS011;51771;51.068;-1.780;2023-05-07T05:28:05;12.40;;;4.90;;
65182;SDS011;51771;51.068;-1.780;2023-05-07T05:30:30;13.95;;;6.00;;
65182;SDS011;51771;51.068;-1.780;2023-05-07T05:32:58;11.85;;;5.40;;
65182;SDS011;51771;51.068;-1.780;2023-05-07T05:35:23;16.85;;;5.25;;
65182;SDS011;51771;51.068;-1.780;2023-05-07T05:37:48;11.17;;;4.57;;
65182;SDS011;51771;51.068;-1.780;2023-05-07T05:40:13;13.70;;;5.10;;
65182;SDS011;51771;51.068;-1.780;2023-05-07T05:42:39;10.93;;;5.05;;
65182;SDS011;51771;51.068;-1.780;2023-05-07T05:45:04;15.48;;;4.50;;
65182;SDS011;51771;51.068;-1.780;2023-05-07T05:47:30;11.40;;;5.40;;
65182;SDS011;51771;51.068;-1.780;2023-05-07T05:49:55;9.88;;;3.47;;
65182;SDS011;51771;51.068;-1.780;2023-05-07T05:52:20;12.57;;;4.03;;
65182;SDS011;51771;51.068;-1.780;2023-05-07T05:54:48;9.57;;;4.53;;
65182;SDS011;51771;51.068;-1.780;2023-05-07T05:57:13;10.10;;;4.72;;
65182;SDS011;51771;51.068;-1.780;2023-05-07T05:59:39;10.05;;;3.78;;
65182;SDS011;51771;51.068;-1.780;2023-05-07T06:02:04;13.43;;;4.90;;
65182;SDS011;51771;51.068;-1.780;2023-05-07T06:04:30;11.20;;;4.82;;
65182;SDS011;51771;51.068;-1.780;2023-05-07T06:06:55;12.17;;;5.07;;
65182;SDS011;51771;51.068;-1.780;2023-05-07T06:09:21;11.50;;;4.18;;
65182;SDS011;51771;51.068;-1.780;2023-05-07T06:11:46;12.47;;;4.13;;
65182;SDS011;51771;51.068;-1.780;2023-05-07T06:14:12;13.38;;;4.72;;
65182;SDS011;51771;51.068;-1.780;2023-05-07T06:16:37;12.60;;;4.57;;
65182;SDS011;51771;51.068;-1.780;2023-05-07T06:19:03;11.05;;;5.10;;
65182;SDS011;51771;51.068;-1.780;2023-05-07T06:21:28;8.38;;;3.55;;
65182;SDS011;51771;51.068;-1.780;2023-05-07T06:23:53;14.00;;;4.43;;
65182;SDS011;51771;51.068;-1.780;2023-05-07T06:26:20;11.13;;;5.68;;
65182;SDS011;51771;51.068;-1.780;2023-05-07T06:28:45;10.57;;;4.40;;
65182;SDS011;51771;51.068;-1.780;2023-05-07T06:31:18;10.88;;;5.00;;
65182;SDS011;51771;51.068;-1.780;2023-05-07T06:33:45;14.50;;;5.47;;
65182;SDS011;51771;51.068;-1.780;2023-05-07T06:36:11;13.15;;;4.90;;
65182;SDS011;51771;51.068;-1.780;2023-05-07T06:38:36;10.32;;;4.18;;
65182;SDS011;51771;51.068;-1.780;2023-05-07T06:41:01;14.70;;;5.30;;
65182;SDS011;51771;51.068;-1.780;2023-05-07T06:43:26;14.45;;;5.53;;
65182;SDS011;51771;51.068;-1.780;2023-05-07T06:45:52;11.70;;;4.68;;
65182;SDS011;51771;51.068;-1.780;2023-05-07T06:48:17;9.83;;;4.40;;
65182;SDS011;51771;51.068;-1.780;2023-05-07T06:50:42;12.20;;;5.10;;
65182;SDS011;51771;51.068;-1.780;2023-05-07T06:53:07;14.00;;;4.80;;
65182;SDS011;51771;51.068;-1.780;2023-05-07T06:55:32;13.80;;;4.87;;
65182;SDS011;51771;51.068;-1.780;2023-05-07T06:57:58;12.93;;;4.85;;
65182;SDS011;51771;51.068;-1.780;2023-05-07T07:00:25;11.30;;;4.50;;
65182;SDS011;51771;51.068;-1.780;2023-05-07T07:02:51;11.82;;;4.90;;
65182;SDS011;51771;51.068;-1.780;2023-05-07T07:05:16;12.87;;;4.50;;
65182;SDS011;51771;51.068;-1.780;2023-05-07T07:07:41;10.93;;;4.38;;
65182;SDS011;51771;51.068;-1.780;2023-05-07T07:10:07;11.15;;;5.00;;
65182;SDS011;51771;51.068;-1.780;2023-05-07T07:12:32;11.70;;;4.18;;
65182;SDS011;51771;51.068;-1.780;2023-05-07T07:14:57;9.33;;;3.90;;
65182;SDS011;51771;51.068;-1.780;2023-05-07T07:17:23;7.78;;;3.88;;
65182;SDS011;51771;51.068;-1.780;2023-05-07T07:19:48;11.45;;;5.63;;
65182;SDS011;51771;51.068;-1.780;2023-05-07T07:22:13;9.75;;;4.47;;
65182;SDS011;51771;51.068;-1.780;2023-05-07T07:24:39;13.20;;;4.68;;
65182;SDS011;51771;51.068;-1.780;2023-05-07T07:27:04;11.53;;;3.70;;
65182;SDS011;51771;51.068;-1.780;2023-05-07T07:29:29;11.05;;;4.93;;
65182;SDS011;51771;51.068;-1.780;2023-05-07T07:31:55;12.10;;;4.27;;
65182;SDS011;51771;51.068;-1.780;2023-05-07T07:34:20;9.45;;;3.05;;
65182;SDS011;51771;51.068;-1.780;2023-05-07T07:36:45;10.82;;;3.95;;
65182;SDS011;51771;51.068;-1.780;2023-05-07T07:39:10;8.47;;;4.00;;
65182;SDS011;51771;51.068;-1.780;2023-05-07T07:41:36;10.80;;;4.63;;
65182;SDS011;51771;51.068;-1.780;2023-05-07T07:44:02;8.47;;;3.80;;
65182;SDS011;51771;51.068;-1.780;2023-05-07T07:46:28;9.98;;;3.83;;
65182;SDS011;51771;51.068;-1.780;2023-05-07T07:48:53;9.23;;;4.37;;
65182;SDS011;51771;51.068;-1.780;2023-05-07T07:51:19;13.25;;;3.40;;
65182;SDS011;51771;51.068;-1.780;2023-05-07T07:53:44;11.48;;;4.00;;
65182;SDS011;51771;51.068;-1.780;2023-05-07T07:56:09;7.13;;;3.20;;
65182;SDS011;51771;51.068;-1.780;2023-05-07T07:58:35;7.80;;;3.27;;
65182;SDS011;51771;51.068;-1.780;2023-05-07T08:01:01;8.48;;;2.97;;
65182;SDS011;51771;51.068;-1.780;2023-05-07T08:03:26;6.97;;;3.17;;
65182;SDS011;51771;51.068;-1.780;2023-05-07T08:05:53;8.23;;;3.25;;
65182;SDS011;51771;51.068;-1.780;2023-05-07T08:08:18;9.87;;;3.83;;
65182;SDS011;51771;51.068;-1.780;2023-05-07T08:10:43;8.48;;;3.17;;
65182;SDS011;51771;51.068;-1.780;2023-05-07T08:13:09;7.85;;;3.65;;
65182;SDS011;51771;51.068;-1.780;2023-05-07T08:15:34;8.05;;;3.05;;
65182;SDS011;51771;51.068;-1.780;2023-05-07T08:18:02;8.40;;;3.77;;
65182;SDS011;51771;51.068;-1.780;2023-05-07T08:20:28;10.10;;;3.78;;
65182;SDS011;51771;51.068;-1.780;2023-05-07T08:22:53;6.68;;;3.33;;
65182;SDS011;51771;51.068;-1.780;2023-05-07T08:25:18;10.37;;;3.63;;
65182;SDS011;51771;51.068;-1.780;2023-05-07T08:27:43;6.32;;;2.92;;
65182;SDS011;51771;51.068;-1.780;2023-05-07T08:30:10;8.77;;;2.92;;
65182;SDS011;51771;51.068;-1.780;2023-05-07T08:32:35;8.63;;;3.05;;
65182;SDS011;51771;51.068;-1.780;2023-05-07T08:35:00;7.70;;;3.10;;
65182;SDS011;51771;51.068;-1.780;2023-05-07T08:37:26;6.75;;;2.75;;
65182;SDS011;51771;51.068;-1.780;2023-05-07T08:39:51;9.30;;;3.00;;
65182;SDS011;51771;51.068;-1.780;2023-05-07T08:42:16;6.27;;;2.93;;
65182;SDS011;51771;51.068;-1.780;2023-05-07T08:44:41;7.13;;;2.88;;
65182;SDS011;51771;51.068;-1.780;2023-05-07T08:47:09;9.20;;;3.03;;
65182;SDS011;51771;51.068;-1.780;2023-05-07T08:49:35;8.25;;;2.83;;
65182;SDS011;51771;51.068;-1.780;2023-05-07T08:52:00;8.00;;;3.13;;
65182;SDS011;51771;51.068;-1.780;2023-05-07T08:54:26;6.85;;;3.00;;
65182;SDS011;51771;51.068;-1.780;2023-05-07T08:56:52;5.25;;;2.22;;
65182;SDS011;51771;51.068;-1.780;2023-05-07T08:59:18;5.63;;;2.63;;
65182;SDS011;51771;51.068;-1.780;2023-05-07T09:01:43;6.63;;;2.65;;
65182;SDS011;51771;51.068;-1.780;2023-05-07T09:04:08;5.83;;;2.03;;
65182;SDS011;51771;51.068;-1.780;2023-05-07T09:06:34;5.72;;;2.72;;
65182;SDS011;51771;51.068;-1.780;2023-05-07T09:09:00;6.47;;;2.55;;
65182;SDS011;51771;51.068;-1.780;2023-05-07T09:11:26;5.20;;;1.90;;
65182;SDS011;51771;51.068;-1.780;2023-05-07T09:13:54;6.40;;;2.30;;
65182;SDS011;51771;51.068;-1.780;2023-05-07T09:16:24;5.68;;;2.55;;
65182;SDS011;51771;51.068;-1.780;2023-05-07T09:18:53;7.45;;;2.80;;
65182;SDS011;51771;51.068;-1.780;2023-05-07T09:21:19;7.18;;;2.55;;
65182;SDS011;51771;51.068;-1.780;2023-05-07T09:23:45;6.40;;;2.97;;
65182;SDS011;51771;51.068;-1.780;2023-05-07T09:26:10;5.47;;;2.33;;
65182;SDS011;51771;51.068;-1.780;2023-05-07T09:28:39;7.53;;;2.97;;
65182;SDS011;51771;51.068;-1.780;2023-05-07T09:31:05;6.25;;;2.63;;
65182;SDS011;51771;51.068;-1.780;2023-05-07T09:33:30;28.10;;;7.75;;
65182;SDS011;51771;51.068;-1.780;2023-05-07T09:35:56;6.30;;;3.47;;
65182;SDS011;51771;51.068;-1.780;2023-05-07T09:38:21;39.90;;;13.60;;
65182;SDS011;51771;51.068;-1.780;2023-05-07T09:40:46;12.05;;;4.63;;
65182;SDS011;51771;51.068;-1.780;2023-05-07T09:43:12;9.32;;;3.05;;
65182;SDS011;51771;51.068;-1.780;2023-05-07T09:45:38;10.07;;;4.60;;
65182;SDS011;51771;51.068;-1.780;2023-05-07T09:48:04;5.85;;;2.33;;
65182;SDS011;51771;51.068;-1.780;2023-05-07T09:50:32;5.75;;;2.70;;
65182;SDS011;51771;51.068;-1.780;2023-05-07T09:52:58;4.47;;;2.05;;
65182;SDS011;51771;51.068;-1.780;2023-05-07T09:55:24;9.70;;;5.40;;
65182;SDS011;51771;51.068;-1.780;2023-05-07T09:57:50;6.13;;;1.95;;
65182;SDS011;51771;51.068;-1.780;2023-05-07T10:00:17;3.80;;;1.73;;
65182;SDS011;51771;51.068;-1.780;2023-05-07T10:02:44;5.55;;;1.80;;
65182;SDS011;51771;51.068;-1.780;2023-05-07T10:05:14;4.82;;;1.65;;
65182;SDS011;51771;51.068;-1.780;2023-05-07T10:07:39;9.80;;;2.58;;
65182;SDS011;51771;51.068;-1.780;2023-05-07T10:10:05;10.57;;;4.40;;
65182;SDS011;51771;51.068;-1.780;2023-05-07T10:12:31;7.30;;;3.53;;
65182;SDS011;51771;51.068;-1.780;2023-05-07T10:15:02;15.90;;;4.63;;
65182;SDS011;51771;51.068;-1.780;2023-05-07T10:17:28;8.05;;;2.85;;
65182;SDS011;51771;51.068;-1.780;2023-05-07T10:19:54;3.97;;;1.48;;
65182;SDS011;51771;51.068;-1.780;2023-05-07T10:22:19;4.45;;;2.30;;
65182;SDS011;51771;51.068;-1.780;2023-05-07T10:24:45;3.65;;;1.75;;
65182;SDS011;51771;51.068;-1.780;2023-05-07T10:27:14;7.72;;;3.97;;
65182;SDS011;51771;51.068;-1.780;2023-05-07T10:34:59;4.20;;;1.92;;
65182;SDS011;51771;51.068;-1.780;2023-05-07T10:37:25;5.90;;;2.17;;
65182;SDS011;51771;51.068;-1.780;2023-05-07T10:39:51;7.75;;;3.05;;
65182;SDS011;51771;51.068;-1.780;2023-05-07T10:42:16;6.63;;;2.25;;
65182;SDS011;51771;51.068;-1.780;2023-05-07T10:44:41;5.47;;;2.03;;
65182;SDS011;51771;51.068;-1.780;2023-05-07T10:49:34;6.35;;;2.55;;
65182;SDS011;51771;51.068;-1.780;2023-05-07T10:54:37;6.40;;;2.30;;
65182;SDS011;51771;51.068;-1.780;2023-05-07T10:59:47;5.80;;;2.10;;
65182;SDS011;51771;51.068;-1.780;2023-05-07T11:02:13;5.10;;;1.90;;
65182;SDS011;51771;51.068;-1.780;2023-05-07T11:04:40;6.55;;;2.30;;
65182;SDS011;51771;51.068;-1.780;2023-05-07T11:12:15;6.40;;;2.78;;
65182;SDS011;51771;51.068;-1.780;2023-05-07T11:17:07;6.18;;;2.65;;
65182;SDS011;51771;51.068;-1.780;2023-05-07T11:19:51;5.78;;;2.00;;
65182;SDS011;51771;51.068;-1.780;2023-05-07T11:25:01;6.75;;;2.60;;
65182;SDS011;51771;51.068;-1.780;2023-05-07T11:27:27;6.00;;;2.45;;
65182;SDS011;51771;51.068;-1.780;2023-05-07T11:29:52;6.32;;;2.22;;
65182;SDS011;51771;51.068;-1.780;2023-05-07T11:34:52;7.55;;;2.45;;
65182;SDS011;51771;51.068;-1.780;2023-05-07T11:37:18;6.43;;;3.17;;
65182;SDS011;51771;51.068;-1.780;2023-05-07T11:39:44;6.22;;;2.47;;
65182;SDS011;51771;51.068;-1.780;2023-05-07T11:42:25;7.22;;;2.60;;
65182;SDS011;51771;51.068;-1.780;2023-05-07T11:44:50;5.55;;;2.22;;
65182;SDS011;51771;51.068;-1.780;2023-05-07T11:47:18;5.50;;;2.20;;
65182;SDS011;51771;51.068;-1.780;2023-05-07T11:49:46;7.15;;;2.50;;
65182;SDS011;51771;51.068;-1.780;2023-05-07T11:54:39;4.85;;;1.58;;
65182;SDS011;51771;51.068;-1.780;2023-05-07T11:57:04;4.25;;;1.70;;
65182;SDS011;51771;51.068;-1.780;2023-05-07T11:59:30;3.28;;;1.30;;
65182;SDS011;51771;51.068;-1.780;2023-05-07T12:02:02;3.65;;;1.48;;
65182;SDS011;51771;51.068;-1.780;2023-05-07T12:04:29;4.10;;;1.57;;
65182;SDS011;51771;51.068;-1.780;2023-05-07T12:06:54;5.63;;;1.90;;
65182;SDS011;51771;51.068;-1.780;2023-05-07T12:09:20;5.38;;;1.88;;
65182;SDS011;51771;51.068;-1.780;2023-05-07T12:11:46;3.55;;;1.20;;
65182;SDS011;51771;51.068;-1.780;2023-05-07T12:14:11;3.87;;;1.07;;
65182;SDS011;51771;51.068;-1.780;2023-05-07T12:16:36;4.28;;;1.25;;
65182;SDS011;51771;51.068;-1.780;2023-05-07T12:19:02;3.40;;;1.10;;
65182;SDS011;51771;51.068;-1.780;2023-05-07T12:21:27;2.63;;;0.90;;
65182;SDS011;51771;51.068;-1.780;2023-05-07T12:23:53;5.60;;;1.25;;
65182;SDS011;51771;51.068;-1.780;2023-05-07T12:26:19;2.13;;;0.90;;
65182;SDS011;51771;51.068;-1.780;2023-05-07T12:28:45;4.00;;;1.80;;
65182;SDS011;51771;51.068;-1.780;2023-05-07T12:31:10;3.43;;;1.07;;
65182;SDS011;51771;51.068;-1.780;2023-05-07T12:33:36;3.75;;;0.70;;
65182;SDS011;51771;51.068;-1.780;2023-05-07T12:36:07;2.22;;;0.73;;
65182;SDS011;51771;51.068;-1.780;2023-05-07T12:38:36;1.60;;;0.50;;
65182;SDS011;51771;51.068;-1.780;2023-05-07T12:41:02;1.75;;;0.80;;
65182;SDS011;51771;51.068;-1.780;2023-05-07T12:43:28;3.17;;;0.77;;
65182;SDS011;51771;51.068;-1.780;2023-05-07T12:45:54;3.50;;;0.90;;
65182;SDS011;51771;51.068;-1.780;2023-05-07T12:48:20;2.85;;;0.80;;
65182;SDS011;51771;51.068;-1.780;2023-05-07T12:50:45;1.77;;;0.80;;
65182;SDS011;51771;51.068;-1.780;2023-05-07T12:53:13;4.45;;;1.10;;
65182;SDS011;51771;51.068;-1.780;2023-05-07T12:55:44;4.75;;;1.20;;
65182;SDS011;51771;51.068;-1.780;2023-05-07T12:58:33;2.70;;;0.90;;
65182;SDS011;51771;51.068;-1.780;2023-05-07T13:00:55;3.70;;;1.02;;
65182;SDS011;51771;51.068;-1.780;2023-05-07T13:03:30;2.97;;;1.10;;
65182;SDS011;51771;51.068;-1.780;2023-05-07T13:05:57;3.58;;;1.10;;
65182;SDS011;51771;51.068;-1.780;2023-05-07T13:08:23;3.47;;;1.00;;
65182;SDS011;51771;51.068;-1.780;2023-05-07T13:10:49;3.40;;;1.00;;
65182;SDS011;51771;51.068;-1.780;2023-05-07T13:13:14;3.03;;;1.03;;
65182;SDS011;51771;51.068;-1.780;2023-05-07T13:15:39;3.23;;;1.07;;
65182;SDS011;51771;51.068;-1.780;2023-05-07T13:18:05;2.53;;;1.13;;
65182;SDS011;51771;51.068;-1.780;2023-05-07T13:20:30;2.23;;;0.90;;
65182;SDS011;51771;51.068;-1.780;2023-05-07T13:22:55;3.73;;;1.10;;
65182;SDS011;51771;51.068;-1.780;2023-05-07T13:25:20;3.15;;;1.20;;
65182;SDS011;51771;51.068;-1.780;2023-05-07T13:27:46;5.37;;;1.10;;
65182;SDS011;51771;51.068;-1.780;2023-05-07T13:30:11;4.43;;;1.20;;
65182;SDS011;51771;51.068;-1.780;2023-05-07T13:32:36;1.55;;;0.63;;
65182;SDS011;51771;51.068;-1.780;2023-05-07T13:35:02;3.53;;;1.13;;
65182;SDS011;51771;51.068;-1.780;2023-05-07T13:37:27;3.72;;;1.00;;
65182;SDS011;51771;51.068;-1.780;2023-05-07T13:39:52;3.45;;;1.20;;
65182;SDS011;51771;51.068;-1.780;2023-05-07T13:42:17;2.57;;;0.80;;
65182;SDS011;51771;51.068;-1.780;2023-05-07T13:44:43;3.63;;;0.80;;
65182;SDS011;51771;51.068;-1.780;2023-05-07T13:47:08;3.75;;;1.17;;
65182;SDS011;51771;51.068;-1.780;2023-05-07T13:49:34;3.20;;;1.17;;
65182;SDS011;51771;51.068;-1.780;2023-05-07T13:51:59;3.45;;;1.17;;
65182;SDS011;51771;51.068;-1.780;2023-05-07T13:54:24;3.08;;;1.10;;
65182;SDS011;51771;51.068;-1.780;2023-05-07T13:56:50;5.50;;;1.33;;
65182;SDS011;51771;51.068;-1.780;2023-05-07T13:59:15;3.57;;;1.10;;
65182;SDS011;51771;51.068;-1.780;2023-05-07T14:01:40;3.13;;;1.13;;
65182;SDS011;51771;51.068;-1.780;2023-05-07T14:04:05;5.10;;;1.07;;
65182;SDS011;51771;51.068;-1.780;2023-05-07T14:06:31;3.30;;;1.17;;
65182;SDS011;51771;51.068;-1.780;2023-05-07T14:08:56;3.42;;;1.05;;
65182;SDS011;51771;51.068;-1.780;2023-05-07T14:11:23;2.33;;;0.90;;
65182;SDS011;51771;51.068;-1.780;2023-05-07T14:13:48;3.80;;;1.30;;
65182;SDS011;51771;51.068;-1.780;2023-05-07T14:16:13;3.65;;;1.20;;
65182;SDS011;51771;51.068;-1.780;2023-05-07T14:18:38;6.15;;;1.10;;
65182;SDS011;51771;51.068;-1.780;2023-05-07T14:21:04;2.47;;;0.70;;
65182;SDS011;51771;51.068;-1.780;2023-05-07T14:23:31;3.72;;;1.33;;
65182;SDS011;51771;51.068;-1.780;2023-05-07T14:25:56;3.90;;;1.30;;
65182;SDS011;51771;51.068;-1.780;2023-05-07T14:28:22;3.60;;;1.30;;
65182;SDS011;51771;51.068;-1.780;2023-05-07T14:30:47;3.80;;;1.33;;
65182;SDS011;51771;51.068;-1.780;2023-05-07T14:33:13;4.15;;;1.38;;
65182;SDS011;51771;51.068;-1.780;2023-05-07T14:35:38;3.97;;;1.10;;
65182;SDS011;51771;51.068;-1.780;2023-05-07T14:38:03;3.15;;;1.05;;
65182;SDS011;51771;51.068;-1.780;2023-05-07T14:40:28;2.97;;;1.00;;
65182;SDS011;51771;51.068;-1.780;2023-05-07T14:42:53;3.33;;;1.10;;
65182;SDS011;51771;51.068;-1.780;2023-05-07T14:45:20;2.97;;;0.87;;
65182;SDS011;51771;51.068;-1.780;2023-05-07T14:47:46;2.40;;;0.80;;
65182;SDS011;51771;51.068;-1.780;2023-05-07T14:50:11;3.00;;;0.87;;